Time;durP1;ratioP1;P1;durP2;ratioP2;P2;SDS_P1;SDS_P2;PMS_P1;PMS_P2;Temp;Humidity;BMP_temperature;BMP_pressure;BME280_temperature;BME280_humidity;BME280_pressure;Samples;Min_cycle;Max_cycle;Signal;HPM_P1;HPM_P2
2023/12/05 05:01:05;;;;;;;23.25;9.60;;;;;;;-1.81;100.00;100389.22;5644097;27;20164;-86
2023/12/05 05:04:09;;;;;;;22.75;11.05;;;;;;;-1.70;100.00;100392.00;5368518;33;34900;-85
2023/12/05 05:07:12;;;;;;;22.40;12.52;;;;;;;-1.62;100.00;100386.22;5384530;33;35162;-86
2023/12/05 05:10:15;;;;;;;28.23;11.65;;;;;;;-1.74;100.00;100389.66;5372128;33;34552;-86
2023/12/05 05:13:18;;;;;;;25.77;11.15;;;;;;;-1.76;100.00;100389.75;5380960;33;34199;-86
2023/12/05 05:16:21;;;;;;;23.17;10.77;;;;;;;-1.75;100.00;100398.53;5366707;33;34012;-86
2023/12/05 05:19:24;;;;;;;21.85;11.40;;;;;;;-1.78;100.00;100396.94;5355098;33;33891;-85
2023/12/05 05:22:27;;;;;;;19.67;10.30;;;;;;;-1.73;100.00;100394.81;5367007;33;34902;-86
2023/12/05 05:25:32;;;;;;;19.58;10.05;;;;;;;-1.72;100.00;100380.72;5354687;33;34294;-86
2023/12/05 05:28:36;;;;;;;25.23;12.30;;;;;;;-1.70;100.00;100389.34;5354621;33;34276;-85
2023/12/05 05:31:39;;;;;;;20.20;11.27;;;;;;;-1.66;100.00;100388.22;5379622;33;33707;-85
2023/12/05 05:34:42;;;;;;;23.70;10.60;;;;;;;-1.75;100.00;100395.91;5366475;33;34425;-85
2023/12/05 05:37:45;;;;;;;24.95;12.00;;;;;;;-1.71;100.00;100378.91;5355503;33;33753;-85
2023/12/05 05:40:48;;;;;;;23.20;10.73;;;;;;;-1.70;100.00;100381.44;5380720;33;33957;-85
2023/12/05 05:43:51;;;;;;;21.27;10.45;;;;;;;-1.77;100.00;100389.87;5355587;33;33952;-86
2023/12/05 05:46:54;;;;;;;24.20;12.20;;;;;;;-1.75;100.00;100382.69;5356991;33;34385;-86
2023/12/05 05:49:58;;;;;;;22.80;11.05;;;;;;;-1.78;100.00;100390.78;5367150;33;33481;-85
2023/12/05 05:53:01;;;;;;;25.85;12.13;;;;;;;-1.71;100.00;100392.94;5354724;33;33464;-85
2023/12/05 05:56:04;;;;;;;21.05;11.07;;;;;;;-1.77;100.00;100390.69;5354699;33;33910;-85
2023/12/05 05:59:07;;;;;;;26.70;11.52;;;;;;;-1.56;100.00;100390.25;5354813;33;33994;-86
2023/12/05 06:02:12;;;;;;;26.50;11.77;;;;;;;-1.62;100.00;100389.69;5379930;33;33953;-85
2023/12/05 06:05:15;;;;;;;26.92;11.98;;;;;;;-1.67;100.00;100383.91;5379536;33;34672;-85
2023/12/05 06:08:18;;;;;;;23.58;11.45;;;;;;;-1.65;100.00;100389.91;5366167;33;33703;-85
2023/12/05 06:11:21;;;;;;;19.45;11.50;;;;;;;-1.71;100.00;100386.81;5354119;33;33831;-85
2023/12/05 06:14:24;;;;;;;19.85;10.75;;;;;;;-1.60;100.00;100389.63;5368955;33;33735;-85
2023/12/05 06:17:27;;;;;;;24.80;12.18;;;;;;;-1.63;100.00;100392.47;5379017;33;33801;-86
2023/12/05 06:20:31;;;;;;;23.73;12.65;;;;;;;-1.54;100.00;100383.94;5353744;33;33940;-85
2023/12/05 06:23:38;;;;;;;24.17;12.23;;;;;;;-1.50;100.00;100387.22;5365998;33;33735;-85
2023/12/05 06:26:41;;;;;;;23.73;11.52;;;;;;;-1.58;100.00;100400.06;5379368;33;34764;-86
2023/12/05 06:29:44;;;;;;;28.48;12.93;;;;;;;-1.60;100.00;100393.09;5354619;33;33884;-86
2023/12/05 06:32:47;;;;;;;24.17;12.48;;;;;;;-1.44;100.00;100397.38;5366211;33;35020;-86
2023/12/05 06:35:50;;;;;;;28.27;13.40;;;;;;;-1.54;100.00;100404.22;5365578;33;33568;-86
2023/12/05 06:38:53;;;;;;;24.52;12.10;;;;;;;-1.63;100.00;100395.09;5350087;33;34704;-90
2023/12/05 06:41:57;;;;;;;23.83;11.93;;;;;;;-1.51;100.00;100409.28;5366302;33;34044;-90
2023/12/05 06:45:04;;;;;;;20.52;11.43;;;;;;;-1.62;100.00;100397.63;5346034;33;34351;-90
2023/12/05 06:48:07;;;;;;;24.25;12.05;;;;;;;-1.58;100.00;100413.25;5369795;33;33743;-86
2023/12/05 06:51:17;;;;;;;21.10;11.40;;;;;;;-1.51;100.00;100406.66;5383001;33;33894;-86
2023/12/05 06:54:20;;;;;;;21.52;11.25;;;;;;;-1.40;100.00;100394.44;5362404;33;33771;-86
2023/12/05 06:57:23;;;;;;;26.95;11.75;;;;;;;-1.49;100.00;100389.78;5370563;33;34603;-86
2023/12/05 07:00:26;;;;;;;31.70;12.85;;;;;;;-1.37;100.00;100388.12;5367325;33;33870;-86
2023/12/05 07:03:29;;;;;;;29.48;12.93;;;;;;;-1.37;100.00;100388.12;5358858;33;34704;-86
2023/12/05 07:06:34;;;;;;;21.95;10.77;;;;;;;-1.40;100.00;100393.59;5351883;33;34150;-86
2023/12/05 07:09:37;;;;;;;22.90;12.37;;;;;;;-1.36;100.00;100400.38;5357399;33;33668;-86
2023/12/05 07:12:41;;;;;;;22.60;11.57;;;;;;;-1.29;100.00;100399.00;5366807;33;35497;-86
2023/12/05 07:15:43;;;;;;;26.77;11.80;;;;;;;-1.38;100.00;100397.81;5369939;33;33898;-86
2023/12/05 07:18:49;;;;;;;21.77;12.05;;;;;;;-1.30;100.00;100397.31;5344455;33;33790;-86
2023/12/05 07:21:52;;;;;;;24.10;11.88;;;;;;;-1.22;100.00;100404.75;5357271;33;34500;-86
2023/12/05 07:24:55;;;;;;;23.48;12.77;;;;;;;-1.10;100.00;100409.19;5366896;33;33509;-86
2023/12/05 07:27:58;;;;;;;21.55;11.40;;;;;;;-1.02;100.00;100412.19;5352766;33;33479;-86
2023/12/05 07:31:02;;;;;;;23.65;12.15;;;;;;;-0.91;100.00;100414.09;5361546;33;34333;-86
2023/12/05 07:34:05;;;;;;;22.37;11.52;;;;;;;-1.01;100.00;100426.22;5387273;33;32685;-85
2023/12/05 07:37:08;;;;;;;30.48;13.18;;;;;;;-1.00;100.00;100423.47;5362710;33;33884;-85
2023/12/05 07:40:11;;;;;;;27.45;13.45;;;;;;;-0.93;100.00;100423.94;5364328;33;34972;-85
2023/12/05 07:43:15;;;;;;;26.23;12.75;;;;;;;-0.90;100.00;100425.53;5358313;33;35199;-86
2023/12/05 07:46:18;;;;;;;24.17;11.93;;;;;;;-1.01;100.00;100423.59;5337479;33;34676;-85
2023/12/05 07:49:21;;;;;;;27.80;11.73;;;;;;;-0.92;100.00;100423.81;5342464;33;35078;-85
2023/12/05 07:52:25;;;;;;;27.25;12.07;;;;;;;-0.90;100.00;100421.09;5354078;33;34777;-86
2023/12/05 07:55:28;;;;;;;23.00;11.68;;;;;;;-0.92;100.00;100417.69;5364522;33;34729;-86
2023/12/05 07:58:31;;;;;;;25.35;12.98;;;;;;;-1.04;100.00;100421.16;5363818;33;34254;-86
2023/12/05 08:01:34;;;;;;;24.92;11.55;;;;;;;-0.93;100.00;100416.00;5354059;33;33060;-86
2023/12/05 08:04:37;;;;;;;25.17;12.63;;;;;;;-1.02;100.00;100404.25;5338862;33;32493;-86
2023/12/05 08:07:40;;;;;;;24.92;12.00;;;;;;;-0.88;100.00;100405.09;5346932;33;34783;-86
2023/12/05 08:10:43;;;;;;;24.63;12.05;;;;;;;-0.85;100.00;100399.59;5337953;33;33947;-86
2023/12/05 08:13:47;;;;;;;25.10;11.32;;;;;;;-0.69;100.00;100397.63;5350180;33;35074;-86
2023/12/05 08:16:50;;;;;;;25.08;12.35;;;;;;;-0.66;100.00;100393.94;5372347;33;33478;-85
2023/12/05 08:19:54;;;;;;;27.10;12.73;;;;;;;-0.68;100.00;100397.50;5345415;33;33866;-85
2023/12/05 08:22:57;;;;;;;25.67;11.80;;;;;;;-0.64;100.00;100407.88;5356222;33;33990;-86
2023/12/05 08:26:00;;;;;;;23.35;10.82;;;;;;;-0.61;100.00;100400.59;5363842;33;33892;-86
2023/12/05 08:29:04;;;;;;;30.55;12.82;;;;;;;-0.70;100.00;100403.88;5379966;33;33340;-86
2023/12/05 08:32:08;;;;;;;20.55;10.50;;;;;;;-0.58;100.00;100410.13;5366801;33;34639;-86
2023/12/05 08:35:11;;;;;;;24.23;11.65;;;;;;;-0.44;100.00;100407.34;5348989;33;33496;-86
2023/12/05 08:38:15;;;;;;;24.17;12.73;;;;;;;-0.52;100.00;100412.34;5348959;33;34122;-86
2023/12/05 08:41:19;;;;;;;24.48;12.05;;;;;;;-0.59;100.00;100422.47;5358971;33;33963;-86
2023/12/05 08:44:22;;;;;;;24.25;12.37;;;;;;;-0.62;100.00;100416.53;5360518;33;33640;-86
2023/12/05 08:47:26;;;;;;;24.77;11.45;;;;;;;-0.56;100.00;100413.47;5372196;33;34137;-90
2023/12/05 08:50:29;;;;;;;26.52;11.98;;;;;;;-0.43;100.00;100421.44;5348883;33;34253;-87
2023/12/05 08:53:32;;;;;;;24.98;11.63;;;;;;;-0.49;100.00;100412.97;5344560;33;35291;-89
2023/12/05 08:56:35;;;;;;;24.77;12.68;;;;;;;-0.39;100.00;100413.16;5365243;33;35641;-87
2023/12/05 08:59:38;;;;;;;22.90;12.13;;;;;;;-0.14;100.00;100411.47;5342156;33;34166;-86
2023/12/05 09:02:41;;;;;;;23.48;12.30;;;;;;;-0.27;100.00;100409.66;5346899;33;35335;-87
2023/12/05 09:05:44;;;;;;;23.20;12.30;;;;;;;-0.25;100.00;100409.56;5358057;33;34968;-87
2023/12/05 09:08:50;;;;;;;26.37;11.90;;;;;;;-0.16;100.00;100403.63;5372349;33;35317;-86
2023/12/05 09:11:53;;;;;;;30.67;13.60;;;;;;;-0.19;100.00;100392.41;5357896;33;34699;-87
2023/12/05 09:14:57;;;;;;;25.10;12.10;;;;;;;-0.18;100.00;100400.22;5371581;33;33890;-86
2023/12/05 09:18:01;;;;;;;23.70;11.85;;;;;;;-0.14;100.00;100398.22;5369516;33;34887;-86
2023/12/05 09:21:04;;;;;;;23.55;11.80;;;;;;;-0.07;100.00;100402.97;5375573;33;33366;-86
2023/12/05 09:24:08;;;;;;;30.73;12.68;;;;;;;0.09;100.00;100405.38;5357718;33;33803;-86
2023/12/05 09:27:11;;;;;;;23.65;12.85;;;;;;;-0.05;100.00;100409.00;5364841;33;35325;-85
2023/12/05 09:30:15;;;;;;;27.17;12.10;;;;;;;-0.03;100.00;100403.56;5380531;33;35280;-86
2023/12/05 09:33:18;;;;;;;24.65;13.05;;;;;;;-0.47;100.00;100399.63;5372628;33;34186;-85
2023/12/05 09:36:21;;;;;;;25.08;12.13;;;;;;;-0.26;100.00;100402.59;5359288;33;33638;-86
2023/12/05 09:39:24;;;;;;;24.02;12.10;;;;;;;-0.23;100.00;100391.78;5365579;33;35229;-86
2023/12/05 09:42:28;;;;;;;21.08;10.85;;;;;;;-0.24;100.00;100390.91;5364405;33;34688;-86
2023/12/05 09:45:37;;;;;;;22.20;11.82;;;;;;;-0.10;100.00;100391.75;5355760;33;33584;-86
2023/12/05 09:48:46;;;;;;;21.77;11.27;;;;;;;-0.05;100.00;100376.41;5374990;33;33500;-86
2023/12/05 09:51:51;;;;;;;25.62;11.80;;;;;;;0.01;100.00;100373.31;5353226;33;33804;-86
2023/12/05 09:54:54;;;;;;;25.15;11.65;;;;;;;-0.11;100.00;100376.84;5369675;33;34119;-86
2023/12/05 09:57:59;;;;;;;25.05;13.73;;;;;;;-0.25;100.00;100369.88;5353836;33;33800;-85
2023/12/05 10:01:05;;;;;;;22.67;11.63;;;;;;;-0.07;100.00;100371.19;5358434;33;34448;-86
2023/12/05 10:04:11;;;;;;;25.23;12.45;;;;;;;-0.24;100.00;100375.03;5348657;33;34133;-86
2023/12/05 10:07:15;;;;;;;24.27;12.25;;;;;;;-0.12;100.00;100367.19;5364804;33;33804;-85
2023/12/05 10:10:19;;;;;;;25.98;12.30;;;;;;;0.02;100.00;100360.91;5361172;33;32554;-85
2023/12/05 10:13:23;;;;;;;25.15;12.27;;;;;;;0.20;100.00;100356.94;5377849;33;33938;-86
2023/12/05 10:16:27;;;;;;;23.83;11.32;;;;;;;0.19;100.00;100353.44;5351600;33;33491;-86
2023/12/05 10:19:32;;;;;;;23.38;11.70;;;;;;;0.21;100.00;100353.34;5362322;33;33792;-86
2023/12/05 10:22:36;;;;;;;24.63;12.95;;;;;;;0.18;100.00;100333.22;5345275;33;33564;-86
2023/12/05 10:25:42;;;;;;;25.75;12.00;;;;;;;0.25;100.00;100330.12;5357223;33;33524;-85
2023/12/05 10:28:55;;;;;;;24.83;12.20;;;;;;;0.21;100.00;100321.56;5359055;33;33865;-86
2023/12/05 10:31:57;;;;;;;21.40;12.05;;;;;;;0.27;100.00;100321.13;5349595;33;33515;-85
2023/12/05 10:35:03;;;;;;;26.08;11.50;;;;;;;0.12;100.00;100328.37;5356871;33;33948;-90
2023/12/05 10:38:08;;;;;;;29.70;13.18;;;;;;;0.26;100.00;100314.09;5340416;33;33795;-90
2023/12/05 10:41:11;;;;;;;25.00;13.32;;;;;;;0.47;100.00;100305.53;5348836;33;34268;-90
2023/12/05 10:44:14;;;;;;;24.70;12.07;;;;;;;0.73;100.00;100308.88;5342426;33;33673;-86
2023/12/05 10:47:17;;;;;;;30.02;12.23;;;;;;;0.65;100.00;100309.47;5339449;33;33814;-86
2023/12/05 10:50:22;;;;;;;23.20;11.77;;;;;;;0.82;100.00;100306.38;5373830;33;33919;-86
2023/12/05 10:53:26;;;;;;;20.02;11.50;;;;;;;0.94;100.00;100304.59;5352420;33;33535;-86
2023/12/05 10:56:29;;;;;;;25.50;11.55;;;;;;;1.02;100.00;100299.53;5352600;33;34319;-86
2023/12/05 10:59:34;;;;;;;29.00;11.63;;;;;;;0.94;100.00;100299.28;5345536;33;33624;-86
2023/12/05 11:02:38;;;;;;;30.88;13.10;;;;;;;1.08;100.00;100288.47;5348636;33;33755;-86
2023/12/05 11:05:41;;;;;;;22.98;11.95;;;;;;;1.18;100.00;100285.09;5360568;33;33482;-86
2023/12/05 11:08:45;;;;;;;27.48;12.65;;;;;;;1.45;100.00;100295.34;5357462;33;34010;-86
2023/12/05 11:11:54;;;;;;;22.60;12.40;;;;;;;1.64;100.00;100292.91;5343087;33;33513;-86
2023/12/05 11:14:58;;;;;;;22.83;10.90;;;;;;;1.69;100.00;100298.69;5370136;33;33866;-86
2023/12/05 11:18:15;;;;;;;24.45;12.70;;;;;;;1.56;100.00;100304.13;5362506;33;34730;-86
2023/12/05 11:21:43;;;;;;;19.77;10.63;;;;;;;1.29;100.00;100299.19;5346840;33;34065;-86
2023/12/05 11:25:28;;;;;;;25.60;11.68;;;;;;;1.15;100.00;100286.19;5371546;33;33379;-86
2023/12/05 11:28:50;;;;;;;26.33;12.07;;;;;;;1.05;100.00;100296.66;5330738;33;33657;-86
2023/12/05 11:32:31;;;;;;;27.30;13.25;;;;;;;1.14;100.00;100284.47;5376960;33;35296;-90
2023/12/05 11:35:58;;;;;;;25.17;12.77;;;;;;;0.97;100.00;100293.75;5378175;33;34143;-86
2023/12/05 11:39:03;;;;;;;26.10;12.23;;;;;;;0.98;100.00;100291.94;5377299;33;33689;-86
2023/12/05 11:42:11;;;;;;;23.85;12.25;;;;;;;1.10;100.00;100285.69;5348346;33;34423;-86
2023/12/05 11:45:22;;;;;;;26.73;13.30;;;;;;;1.07;100.00;100288.56;5360141;33;34214;-86
2023/12/05 11:48:26;;;;;;;24.67;13.27;;;;;;;0.90;100.00;100282.75;5363122;33;32957;-86
2023/12/05 11:51:33;;;;;;;23.23;11.85;;;;;;;1.07;100.00;100283.28;5375693;33;34217;-86
2023/12/05 11:54:36;;;;;;;25.33;12.20;;;;;;;1.34;100.00;100286.41;5346431;33;34403;-86
2023/12/05 11:57:40;;;;;;;21.40;11.98;;;;;;;1.30;100.00;100287.63;5375679;33;35246;-86
2023/12/05 12:00:45;;;;;;;26.17;12.27;;;;;;;1.19;100.00;100286.78;5371389;33;34762;-86
2023/12/05 12:03:53;;;;;;;30.95;12.27;;;;;;;1.06;100.00;100271.00;5368843;33;34365;-85
2023/12/05 12:06:56;;;;;;;25.98;11.75;;;;;;;1.21;100.00;100280.41;5357175;33;33917;-85
2023/12/05 12:10:03;;;;;;;26.20;11.57;;;;;;;1.31;100.00;100280.50;5371752;33;32643;-85
2023/12/05 12:13:07;;;;;;;25.40;13.93;;;;;;;1.33;100.00;100278.59;5366679;33;33790;-85
2023/12/05 12:16:15;;;;;;;26.42;13.62;;;;;;;1.36;100.00;100292.44;5344922;33;33781;-85
2023/12/05 12:19:18;;;;;;;27.00;13.20;;;;;;;1.43;100.00;100289.31;5373866;33;34598;-85
2023/12/05 12:22:21;;;;;;;25.83;11.77;;;;;;;1.61;100.00;100282.56;5340451;33;34011;-85
2023/12/05 12:25:24;;;;;;;32.30;13.90;;;;;;;1.78;100.00;100271.44;5368407;33;35115;-86
2023/12/05 12:28:29;;;;;;;26.15;13.15;;;;;;;1.60;100.00;100280.84;5357039;33;32544;-86
2023/12/05 12:31:32;;;;;;;27.55;13.45;;;;;;;1.53;100.00;100275.19;5374083;33;35029;-86
2023/12/05 12:34:36;;;;;;;25.60;12.77;;;;;;;1.58;100.00;100272.19;5363503;33;33411;-89
2023/12/05 12:37:40;;;;;;;21.98;12.02;;;;;;;1.36;100.00;100276.53;5359430;33;34512;-90
2023/12/05 12:40:54;;;;;;;23.75;12.18;;;;;;;1.41;100.00;100273.53;5349051;33;34103;-86
2023/12/05 12:43:57;;;;;;;26.10;12.35;;;;;;;1.36;100.00;100270.38;5353945;33;33945;-86
2023/12/05 12:47:00;;;;;;;27.30;13.88;;;;;;;1.28;100.00;100270.13;5366059;33;33387;-86
2023/12/05 12:50:04;;;;;;;25.85;12.23;;;;;;;1.19;100.00;100268.22;5362672;33;33806;-85
2023/12/05 12:53:09;;;;;;;26.73;12.88;;;;;;;1.43;100.00;100268.06;5352865;33;33815;-86
2023/12/05 12:56:12;;;;;;;27.42;13.25;;;;;;;1.46;100.00;100265.19;5367097;33;32933;-86
2023/12/05 12:59:16;;;;;;;26.90;12.63;;;;;;;1.32;100.00;100263.66;5364157;33;34609;-86
2023/12/05 13:02:20;;;;;;;34.33;12.63;;;;;;;1.35;100.00;100263.41;5358049;33;34187;-86
2023/12/05 13:05:32;;;;;;;23.77;13.32;;;;;;;1.36;100.00;100257.13;5354355;33;34085;-86
2023/12/05 13:08:39;;;;;;;29.37;13.25;;;;;;;1.39;100.00;100262.19;5378029;33;33931;-86
2023/12/05 13:11:46;;;;;;;22.20;11.38;;;;;;;1.32;100.00;100251.22;5363964;33;33970;-86
2023/12/05 13:14:50;;;;;;;29.05;12.00;;;;;;;1.18;100.00;100256.78;5378892;33;34700;-86
2023/12/05 13:18:06;;;;;;;27.67;12.55;;;;;;;1.12;100.00;100260.75;5362809;33;33863;-86
2023/12/05 13:21:10;;;;;;;24.52;12.20;;;;;;;1.13;100.00;100266.88;5378091;33;34840;-86
2023/12/05 13:24:16;;;;;;;24.23;12.23;;;;;;;1.14;100.00;100273.88;5373323;33;33923;-86
2023/12/05 13:27:19;;;;;;;22.55;11.80;;;;;;;1.12;100.00;100266.03;5377098;33;34033;-86
2023/12/05 13:30:22;;;;;;;29.05;12.88;;;;;;;1.03;100.00;100257.97;5367331;33;33832;-86
2023/12/05 13:33:25;;;;;;;25.90;13.00;;;;;;;0.98;100.00;100260.13;5384723;33;33522;-86
2023/12/05 13:36:29;;;;;;;26.67;13.20;;;;;;;0.59;100.00;100252.50;5381816;33;34111;-86
2023/12/05 13:39:31;;;;;;;25.90;12.80;;;;;;;0.74;100.00;100249.63;5360424;33;33297;-86
2023/12/05 13:42:35;;;;;;;26.00;12.82;;;;;;;0.70;100.00;100243.69;5341038;33;35159;-86
2023/12/05 13:45:38;;;;;;;23.90;12.05;;;;;;;0.78;100.00;100245.78;5366812;33;33410;-86
2023/12/05 13:48:41;;;;;;;25.20;12.80;;;;;;;0.84;100.00;100248.78;5359319;33;33971;-86
2023/12/05 13:51:45;;;;;;;28.10;13.10;;;;;;;0.82;100.00;100244.56;5352212;33;34798;-86
2023/12/05 13:54:48;;;;;;;27.42;13.27;;;;;;;0.82;100.00;100261.31;5358176;33;33491;-86
2023/12/05 13:57:52;;;;;;;24.25;12.18;;;;;;;0.83;100.00;100254.22;5366023;33;33891;-86
2023/12/05 14:00:56;;;;;;;25.12;13.15;;;;;;;0.78;100.00;100245.78;5352954;33;33393;-86
2023/12/05 14:03:59;;;;;;;28.40;12.07;;;;;;;0.80;100.00;100246.50;5356193;33;32783;-85
2023/12/05 14:07:02;;;;;;;32.75;13.88;;;;;;;0.69;100.00;100257.91;5363635;33;34623;-86
2023/12/05 14:10:07;;;;;;;31.73;13.10;;;;;;;0.75;100.00;100254.78;5361269;33;34684;-86
2023/12/05 14:13:10;;;;;;;25.75;13.23;;;;;;;0.69;100.00;100252.62;5354741;33;33558;-86
2023/12/05 14:16:14;;;;;;;26.73;13.30;;;;;;;0.72;100.00;100255.03;5351298;33;33411;-89
2023/12/05 14:19:17;;;;;;;26.25;12.32;;;;;;;0.66;100.00;100253.69;5366933;33;35053;-90
2023/12/05 14:22:20;;;;;;;27.98;12.93;;;;;;;0.75;100.00;100253.97;5378980;33;36772;-89
2023/12/05 14:25:23;;;;;;;29.77;13.35;;;;;;;0.63;100.00;100261.88;5386638;33;34721;-88
2023/12/05 14:28:26;;;;;;;26.17;13.20;;;;;;;0.66;100.00;100259.00;5347472;33;33665;-86
2023/12/05 14:31:29;;;;;;;26.95;12.95;;;;;;;0.47;100.00;100265.81;5359765;33;34941;-86
2023/12/05 14:34:37;;;;;;;28.73;13.23;;;;;;;0.55;100.00;100271.37;5353930;33;33327;-86
2023/12/05 14:37:40;;;;;;;27.45;13.95;;;;;;;0.47;100.00;100261.37;5375411;33;34615;-86
2023/12/05 14:40:44;;;;;;;29.00;13.57;;;;;;;0.46;100.00;100267.59;5361682;33;33855;-85
2023/12/05 14:43:46;;;;;;;25.25;13.15;;;;;;;0.40;100.00;100268.06;5375363;33;34035;-85
2023/12/05 14:46:50;;;;;;;27.33;11.27;;;;;;;0.48;100.00;100271.00;5365672;33;33528;-85
2023/12/05 14:49:53;;;;;;;24.92;12.95;;;;;;;0.48;100.00;100276.28;5357088;33;34452;-86
2023/12/05 14:52:56;;;;;;;32.88;13.95;;;;;;;0.39;100.00;100275.19;5353194;33;35364;-86
2023/12/05 14:55:59;;;;;;;29.30;12.43;;;;;;;0.41;100.00;100275.91;5366383;33;34302;-86
2023/12/05 14:59:03;;;;;;;31.20;14.07;;;;;;;0.41;100.00;100275.91;5376921;33;34828;-86
2023/12/05 15:02:08;;;;;;;24.85;12.95;;;;;;;0.36;100.00;100282.53;5358231;33;35379;-87
2023/12/05 15:05:11;;;;;;;27.45;13.02;;;;;;;0.42;100.00;100274.94;5369447;33;33795;-85
2023/12/05 15:08:14;;;;;;;25.55;14.10;;;;;;;0.42;100.00;100274.13;5380136;33;33533;-84
2023/12/05 15:11:17;;;;;;;28.58;13.07;;;;;;;0.30;100.00;100278.53;5355283;33;32321;-85
2023/12/05 15:14:20;;;;;;;34.28;14.57;;;;;;;0.39;100.00;100283.12;5353878;33;34686;-84
2023/12/05 15:17:25;;;;;;;30.80;14.57;;;;;;;0.31;100.00;100282.00;5360534;33;33867;-87
2023/12/05 15:20:29;;;;;;;31.58;16.12;;;;;;;0.48;100.00;100284.25;5363199;33;161829;-86
2023/12/05 15:23:33;;;;;;;26.80;13.38;;;;;;;0.48;100.00;100281.59;5352956;33;33470;-87
2023/12/05 15:26:36;;;;;;;26.42;13.60;;;;;;;0.33;100.00;100283.59;5341669;33;33637;-87
2023/12/05 15:29:39;;;;;;;32.47;16.30;;;;;;;0.34;100.00;100284.44;5345814;33;33795;-87
2023/12/05 15:32:50;;;;;;;29.52;14.43;;;;;;;0.30;100.00;100285.63;5366437;33;35598;-86
2023/12/05 15:35:55;;;;;;;26.02;13.62;;;;;;;0.35;100.00;100286.97;5352546;33;33514;-86
2023/12/05 15:38:59;;;;;;;27.05;14.43;;;;;;;0.41;100.00;100285.66;5356618;33;34435;-86
2023/12/05 15:42:03;;;;;;;32.83;15.02;;;;;;;0.42;100.00;100287.34;5366937;33;33637;-86
2023/12/05 15:45:07;;;;;;;38.25;15.25;;;;;;;0.45;100.00;100277.37;5358390;33;34585;-86
2023/12/05 15:48:10;;;;;;;31.00;15.32;;;;;;;0.43;100.00;100278.44;5339895;33;33481;-86
2023/12/05 15:51:36;;;;;;;33.33;15.25;;;;;;;0.47;100.00;100284.34;5365336;33;33538;-86
2023/12/05 15:54:39;;;;;;;35.13;15.93;;;;;;;0.51;100.00;100288.47;5359599;33;34222;-86
2023/12/05 15:57:42;;;;;;;31.67;16.27;;;;;;;0.43;100.00;100276.62;5351521;33;33870;-86
2023/12/05 16:00:46;;;;;;;29.12;14.75;;;;;;;0.54;100.00;100275.81;5363199;33;34628;-86
2023/12/05 16:04:02;;;;;;;34.05;14.85;;;;;;;0.42;100.00;100277.59;5340526;33;33727;-87
2023/12/05 16:07:05;;;;;;;33.53;14.35;;;;;;;0.25;100.00;100269.22;5336834;33;33910;-87
2023/12/05 16:10:10;;;;;;;30.83;14.98;;;;;;;0.19;100.00;100276.66;5337380;33;33787;-87
2023/12/05 16:13:13;;;;;;;32.65;15.10;;;;;;;0.21;100.00;100280.06;5361835;33;33446;-87
2023/12/05 16:16:17;;;;;;;34.28;15.52;;;;;;;0.25;100.00;100283.31;5335765;33;33877;-86
2023/12/05 16:19:19;;;;;;;35.42;15.13;;;;;;;0.30;100.00;100288.28;5348973;33;33553;-87
2023/12/05 16:22:23;;;;;;;32.75;14.52;;;;;;;0.26;100.00;100276.19;5348838;33;33627;-86
2023/12/05 16:25:25;;;;;;;28.60;13.73;;;;;;;0.33;100.00;100285.41;5348672;33;34788;-86
2023/12/05 16:28:28;;;;;;;33.05;14.90;;;;;;;0.48;100.00;100288.69;5325618;33;33752;-86
2023/12/05 16:31:32;;;;;;;29.98;14.52;;;;;;;0.38;100.00;100289.38;5348656;33;35032;-86
2023/12/05 16:34:37;;;;;;;33.28;14.57;;;;;;;0.36;100.00;100287.81;5361966;33;34789;-87
2023/12/05 16:37:40;;;;;;;32.30;14.30;;;;;;;0.33;100.00;100282.75;5361694;33;34311;-86
2023/12/05 16:40:46;;;;;;;34.33;14.90;;;;;;;0.40;100.00;100283.97;5349092;33;33963;-87
2023/12/05 16:43:50;;;;;;;26.65;13.05;;;;;;;0.45;100.00;100287.13;5349797;33;34425;-86
2023/12/05 16:46:53;;;;;;;30.67;14.43;;;;;;;0.28;100.00;100274.28;5377518;33;34758;-87
2023/12/05 16:49:56;;;;;;;37.40;14.52;;;;;;;0.42;100.00;100276.75;5342729;33;34237;-86
2023/12/05 16:52:59;;;;;;;29.80;12.10;;;;;;;0.31;100.00;100268.78;5350084;33;34150;-86
